M C B H Kaneohe Bay, HI (96863)

1:53 PM HST on August 29, 2016 (GMT -1000)
Kaelepulu | | Change Station

Elev 23 ft 21.38 °N, 157.74 °W | Updated 2 seconds ago

Mostly Cloudy
Mostly Cloudy
86.4 °F
Feels Like 90 °F
N
4.0
Wind Variable Wind from NE

Today
High -- | Low -- °F
--% Chance of Precip.
Yesterday
High -- | Low -- °F
Precip. -- in
Pressure 29.97 in
Visibility 7.0 miles
Clouds Few 3000 ft
Mostly Cloudy 3600 ft
Heat Index 90 °F
Dew Point 68 °F
Humidity 55%
Rainfall 0.09 in
Snow Depth Not available.
6:13 AM 6:49 PM
Waning Crescent, 6% visible
METAR PHNG 292257Z 07010G17KT 7SM FEW030 BKN036 28/21 A2999 RMK AO2 SLP149 T02830206 $
Pressure 29.97 in
Visibility 7.0 miles
Clouds Few 3000 ft
Mostly Cloudy 3600 ft
Heat Index 90 °F
Dew Point 68 °F
Humidity 55%
Rainfall 0.09 in
Snow Depth Not available.
6:13 AM 6:49 PM
Waning Crescent, 6% visible
METAR PHNG 292257Z 07010G17KT 7SM FEW030 BKN036 28/21 A2999 RMK AO2 SLP149 T02830206 $

10-Day Weather Forecast

Almanac

Astronomy

Aug. 29, 2016 Rise Set
Actual Time
Civil Twilight
Nautical Twilight
Astronomical Twilight
Moon
Length of Visible Light
Length of Day
Tomorrow will be .
, % of the Moon is Illuminated

Today's Extremes

State Highs State Lows

Community

WunderPhotos

Upload Photos

1,935,695 photos uploaded!

WunderBlog® & News

Nearby

Air Quality

  Air Quality AQ Index Pollutant
Not available.

Snow Depth

Station Depth Elevation

Earthquake Activity

City Distance Mag. Time & Date
Minimum magnitude displayed is 2.5.

Coastal Water Temperatures

Place Temperature

Stations

Nearby Weather Stations

Station Location Temp. Windchill Dew Point Humidity Wind Precip. Elev Updated Type
                   

Watches & Warnings

There are currently no watches in effect.